sensor_id;sensor_type;location;lat;lon;timestamp;pressure;altitude;pressure_sealevel;temperature;humidity
7748;BME280;3918;42.564;23.164;2022-10-20T05:01:05;-11650.84;;;-142.29;100.00
7748;BME280;3918;42.564;23.164;2022-10-20T05:03:33;-11650.84;;;-142.29;100.00
7748;BME280;3918;42.564;23.164;2022-10-20T05:06:11;-11650.84;;;-142.29;100.00
7748;BME280;3918;42.564;23.164;2022-10-20T05:08:39;-11650.84;;;-142.29;100.00
7748;BME280;3918;42.564;23.164;2022-10-20T05:11:07;-11650.84;;;-142.29;100.00
7748;BME280;3918;42.564;23.164;2022-10-20T05:13:34;-11650.84;;;-142.29;100.00
7748;BME280;3918;42.564;23.164;2022-10-20T05:16:02;-11650.84;;;-142.29;100.00
7748;BME280;3918;42.564;23.164;2022-10-20T05:18:30;-11650.84;;;-142.29;100.00
7748;BME280;3918;42.564;23.164;2022-10-20T05:20:57;-11650.84;;;-142.29;100.00
7748;BME280;3918;42.564;23.164;2022-10-20T05:23:24;-11650.84;;;-142.29;100.00
7748;BME280;3918;42.564;23.164;2022-10-20T05:25:51;-11650.84;;;-142.29;100.00
7748;BME280;3918;42.564;23.164;2022-10-20T05:28:17;-11650.84;;;-142.29;100.00
7748;BME280;3918;42.564;23.164;2022-10-20T05:30:44;-11650.84;;;-142.29;100.00
7748;BME280;3918;42.564;23.164;2022-10-20T05:33:11;-11650.84;;;-142.29;100.00
7748;BME280;3918;42.564;23.164;2022-10-20T05:35:39;-11650.84;;;-142.29;100.00
7748;BME280;3918;42.564;23.164;2022-10-20T05:38:06;-11650.84;;;-142.29;100.00
7748;BME280;3918;42.564;23.164;2022-10-20T05:40:33;-11650.84;;;-142.29;100.00
7748;BME280;3918;42.564;23.164;2022-10-20T05:42:59;-11650.84;;;-142.29;100.00
7748;BME280;3918;42.564;23.164;2022-10-20T05:45:26;-11650.84;;;-142.29;100.00
7748;BME280;3918;42.564;23.164;2022-10-20T05:47:53;-11650.84;;;-142.29;100.00
7748;BME280;3918;42.564;23.164;2022-10-20T05:50:20;-11650.84;;;-142.29;100.00
7748;BME280;3918;42.564;23.164;2022-10-20T05:52:48;-11650.84;;;-142.29;100.00
7748;BME280;3918;42.564;23.164;2022-10-20T05:55:15;-11650.84;;;-142.29;100.00
7748;BME280;3918;42.564;23.164;2022-10-20T05:57:41;-11650.84;;;-142.29;100.00
7748;BME280;3918;42.564;23.164;2022-10-20T06:00:09;-11650.84;;;-142.29;100.00
7748;BME280;3918;42.564;23.164;2022-10-20T06:02:36;-11650.84;;;-142.29;100.00
7748;BME280;3918;42.564;23.164;2022-10-20T06:05:03;-11650.84;;;-142.29;100.00
7748;BME280;3918;42.564;23.164;2022-10-20T06:07:30;-11650.84;;;-142.29;100.00
7748;BME280;3918;42.564;23.164;2022-10-20T06:09:58;-11650.84;;;-142.29;100.00
7748;BME280;3918;42.564;23.164;2022-10-20T06:12:25;-11650.84;;;-142.29;100.00
7748;BME280;3918;42.564;23.164;2022-10-20T06:14:52;-11650.84;;;-142.29;100.00
7748;BME280;3918;42.564;23.164;2022-10-20T06:17:19;-11650.84;;;-142.29;100.00
7748;BME280;3918;42.564;23.164;2022-10-20T06:19:46;-11650.84;;;-142.29;100.00
7748;BME280;3918;42.564;23.164;2022-10-20T06:22:12;-11650.84;;;-142.29;100.00
7748;BME280;3918;42.564;23.164;2022-10-20T06:24:39;-11650.84;;;-142.29;100.00
7748;BME280;3918;42.564;23.164;2022-10-20T06:27:08;-11650.84;;;-142.29;100.00
7748;BME280;3918;42.564;23.164;2022-10-20T06:29:34;-11650.84;;;-142.29;100.00
7748;BME280;3918;42.564;23.164;2022-10-20T06:32:01;-11650.84;;;-142.29;100.00
7748;BME280;3918;42.564;23.164;2022-10-20T06:34:28;-11650.84;;;-142.29;100.00
7748;BME280;3918;42.564;23.164;2022-10-20T06:36:55;-11650.84;;;-142.29;100.00
7748;BME280;3918;42.564;23.164;2022-10-20T06:39:23;-11650.84;;;-142.29;100.00
7748;BME280;3918;42.564;23.164;2022-10-20T06:41:51;-11650.84;;;-142.29;100.00
7748;BME280;3918;42.564;23.164;2022-10-20T06:44:21;-11650.84;;;-142.29;100.00
7748;BME280;3918;42.564;23.164;2022-10-20T06:46:49;-11650.84;;;-142.29;100.00
7748;BME280;3918;42.564;23.164;2022-10-20T06:49:18;-11650.84;;;-142.29;100.00
7748;BME280;3918;42.564;23.164;2022-10-20T06:51:45;-11650.84;;;-142.29;100.00
7748;BME280;3918;42.564;23.164;2022-10-20T06:54:12;-11650.84;;;-142.29;100.00
7748;BME280;3918;42.564;23.164;2022-10-20T06:56:39;-11650.84;;;-142.29;100.00
7748;BME280;3918;42.564;23.164;2022-10-20T06:59:06;-11650.84;;;-142.29;100.00
7748;BME280;3918;42.564;23.164;2022-10-20T07:01:36;-11650.84;;;-142.29;100.00
7748;BME280;3918;42.564;23.164;2022-10-20T07:04:04;-11650.84;;;-142.29;100.00
7748;BME280;3918;42.564;23.164;2022-10-20T07:06:33;-11650.84;;;-142.29;100.00
7748;BME280;3918;42.564;23.164;2022-10-20T07:09:02;-11650.84;;;-142.29;100.00
7748;BME280;3918;42.564;23.164;2022-10-20T07:11:29;-11650.84;;;-142.29;100.00
7748;BME280;3918;42.564;23.164;2022-10-20T07:13:57;-11650.84;;;-142.29;100.00
7748;BME280;3918;42.564;23.164;2022-10-20T07:16:27;-11650.84;;;-142.29;100.00
7748;BME280;3918;42.564;23.164;2022-10-20T07:18:55;-11650.84;;;-142.29;100.00
7748;BME280;3918;42.564;23.164;2022-10-20T07:21:24;-11650.84;;;-142.29;100.00
7748;BME280;3918;42.564;23.164;2022-10-20T07:23:51;-11650.84;;;-142.29;100.00
7748;BME280;3918;42.564;23.164;2022-10-20T07:26:22;-11650.84;;;-142.29;97.74
7748;BME280;3918;42.564;23.164;2022-10-20T07:28:51;-11650.84;;;-142.29;92.99
7748;BME280;3918;42.564;23.164;2022-10-20T07:31:21;-11650.84;;;-142.29;94.35
7748;BME280;3918;42.564;23.164;2022-10-20T07:33:48;-11650.84;;;-142.29;93.25
7748;BME280;3918;42.564;23.164;2022-10-20T07:36:18;-11650.84;;;-142.29;84.37
7748;BME280;3918;42.564;23.164;2022-10-20T07:38:46;-11650.84;;;-142.29;82.27
7748;BME280;3918;42.564;23.164;2022-10-20T07:41:13;-11650.84;;;-142.29;79.68
7748;BME280;3918;42.564;23.164;2022-10-20T07:43:40;-11650.84;;;-142.29;77.16
7748;BME280;3918;42.564;23.164;2022-10-20T07:46:09;-11650.84;;;-142.29;72.24
7748;BME280;3918;42.564;23.164;2022-10-20T07:48:36;-11650.84;;;-142.29;72.13
7748;BME280;3918;42.564;23.164;2022-10-20T07:51:23;-11650.84;;;-142.29;74.21
7748;BME280;3918;42.564;23.164;2022-10-20T07:53:51;-11650.84;;;-142.29;73.59
7748;BME280;3918;42.564;23.164;2022-10-20T07:56:18;-11650.84;;;-142.29;67.75
7748;BME280;3918;42.564;23.164;2022-10-20T07:58:46;-11650.84;;;-142.29;65.30
7748;BME280;3918;42.564;23.164;2022-10-20T08:01:13;-11650.84;;;-142.29;65.80
7748;BME280;3918;42.564;23.164;2022-10-20T08:03:40;-11650.84;;;-142.29;60.59
7748;BME280;3918;42.564;23.164;2022-10-20T08:06:06;-11650.84;;;-142.29;62.83
7748;BME280;3918;42.564;23.164;2022-10-20T08:08:35;-11650.84;;;-142.29;62.60
7748;BME280;3918;42.564;23.164;2022-10-20T08:11:02;-11650.84;;;-142.29;62.80
7748;BME280;3918;42.564;23.164;2022-10-20T08:13:29;-11650.84;;;-142.29;62.95
7748;BME280;3918;42.564;23.164;2022-10-20T08:15:56;-11650.84;;;-142.29;61.08
7748;BME280;3918;42.564;23.164;2022-10-20T08:18:23;-11650.84;;;-142.29;63.55
7748;BME280;3918;42.564;23.164;2022-10-20T08:20:49;-11650.84;;;-142.29;64.39
7748;BME280;3918;42.564;23.164;2022-10-20T08:23:16;-11650.84;;;-142.29;64.84
7748;BME280;3918;42.564;23.164;2022-10-20T08:25:44;-11650.84;;;-142.29;62.61
7748;BME280;3918;42.564;23.164;2022-10-20T08:28:11;-11650.84;;;-142.29;61.56
7748;BME280;3918;42.564;23.164;2022-10-20T08:30:38;-11650.84;;;-142.29;64.95
7748;BME280;3918;42.564;23.164;2022-10-20T08:33:05;-11650.84;;;-142.29;65.98
7748;BME280;3918;42.564;23.164;2022-10-20T08:35:31;-11650.84;;;-142.29;67.56
7748;BME280;3918;42.564;23.164;2022-10-20T08:37:58;-11650.84;;;-142.29;69.44
7748;BME280;3918;42.564;23.164;2022-10-20T08:40:27;-11650.84;;;-142.29;72.17
7748;BME280;3918;42.564;23.164;2022-10-20T08:42:56;-11650.84;;;-142.29;75.52
7748;BME280;3918;42.564;23.164;2022-10-20T08:45:25;-11650.84;;;-142.29;79.74
7748;BME280;3918;42.564;23.164;2022-10-20T08:47:55;-11650.84;;;-142.29;79.63
7748;BME280;3918;42.564;23.164;2022-10-20T08:50:23;-11650.84;;;-142.29;80.52
7748;BME280;3918;42.564;23.164;2022-10-20T08:52:53;-11650.84;;;-142.29;82.58
7748;BME280;3918;42.564;23.164;2022-10-20T08:55:26;-11650.84;;;-142.29;83.91
7748;BME280;3918;42.564;23.164;2022-10-20T08:57:59;-11650.84;;;-142.29;83.20
7748;BME280;3918;42.564;23.164;2022-10-20T09:00:27;-11650.84;;;-142.29;83.06
7748;BME280;3918;42.564;23.164;2022-10-20T09:02:56;-11650.84;;;-142.29;82.43
7748;BME280;3918;42.564;23.164;2022-10-20T09:05:28;-11650.84;;;-142.29;82.67
7748;BME280;3918;42.564;23.164;2022-10-20T09:07:57;-11650.84;;;-142.29;82.10
7748;BME280;3918;42.564;23.164;2022-10-20T09:10:29;-11650.84;;;-142.29;81.82
7748;BME280;3918;42.564;23.164;2022-10-20T09:12:59;-11650.84;;;-142.29;81.22
7748;BME280;3918;42.564;23.164;2022-10-20T09:15:27;-11650.84;;;-142.29;81.39
7748;BME280;3918;42.564;23.164;2022-10-20T09:17:55;-11650.84;;;-142.29;81.78
7748;BME280;3918;42.564;23.164;2022-10-20T09:20:28;-11650.84;;;-142.29;80.04
7748;BME280;3918;42.564;23.164;2022-10-20T09:22:56;-11650.84;;;-142.29;80.63
7748;BME280;3918;42.564;23.164;2022-10-20T09:25:25;-11650.84;;;-142.29;79.64
7748;BME280;3918;42.564;23.164;2022-10-20T09:27:53;-11650.84;;;-142.29;79.72
7748;BME280;3918;42.564;23.164;2022-10-20T09:30:24;-11650.84;;;-142.29;79.66
7748;BME280;3918;42.564;23.164;2022-10-20T09:32:58;-11650.84;;;-142.29;78.42
7748;BME280;3918;42.564;23.164;2022-10-20T09:35:26;-11650.84;;;-142.29;77.63
7748;BME280;3918;42.564;23.164;2022-10-20T09:37:57;-11650.84;;;-142.29;77.52
7748;BME280;3918;42.564;23.164;2022-10-20T09:40:25;-11650.84;;;-142.29;76.41
7748;BME280;3918;42.564;23.164;2022-10-20T09:42:54;-11650.84;;;-142.29;76.30
7748;BME280;3918;42.564;23.164;2022-10-20T09:45:24;-11650.84;;;-142.29;74.93
7748;BME280;3918;42.564;23.164;2022-10-20T09:48:00;-11650.84;;;-142.29;73.89
7748;BME280;3918;42.564;23.164;2022-10-20T09:50:31;-11650.84;;;-142.29;75.08
7748;BME280;3918;42.564;23.164;2022-10-20T09:53:01;-11650.84;;;-142.29;74.11
7748;BME280;3918;42.564;23.164;2022-10-20T09:55:32;-11650.84;;;-142.29;72.34
7748;BME280;3918;42.564;23.164;2022-10-20T09:58:03;-11650.84;;;-142.29;72.33
7748;BME280;3918;42.564;23.164;2022-10-20T10:00:34;-11650.84;;;-142.29;73.43
7748;BME280;3918;42.564;23.164;2022-10-20T10:03:23;-11650.84;;;-142.29;74.12
7748;BME280;3918;42.564;23.164;2022-10-20T10:05:51;-11650.84;;;-142.29;73.11
7748;BME280;3918;42.564;23.164;2022-10-20T10:08:19;-11650.84;;;-142.29;71.36
7748;BME280;3918;42.564;23.164;2022-10-20T10:10:57;-11650.84;;;-142.29;72.05
7748;BME280;3918;42.564;23.164;2022-10-20T10:13:26;-11650.84;;;-142.29;70.36
7748;BME280;3918;42.564;23.164;2022-10-20T10:16:05;-11650.84;;;-142.29;71.76
7748;BME280;3918;42.564;23.164;2022-10-20T10:18:34;-11650.84;;;-142.29;70.56
7748;BME280;3918;42.564;23.164;2022-10-20T10:21:04;-11650.84;;;-142.29;69.45
7748;BME280;3918;42.564;23.164;2022-10-20T10:23:33;-11650.84;;;-142.29;70.87
7748;BME280;3918;42.564;23.164;2022-10-20T10:26:42;-11650.84;;;-142.29;70.26
7748;BME280;3918;42.564;23.164;2022-10-20T10:29:18;-11650.84;;;-142.29;68.11
7748;BME280;3918;42.564;23.164;2022-10-20T10:31:50;-11650.84;;;-142.29;67.74
7748;BME280;3918;42.564;23.164;2022-10-20T10:34:33;-11650.84;;;-142.29;68.58
7748;BME280;3918;42.564;23.164;2022-10-20T10:37:03;-11650.84;;;-142.29;68.38
7748;BME280;3918;42.564;23.164;2022-10-20T10:39:33;-11650.84;;;-142.29;69.28
7748;BME280;3918;42.564;23.164;2022-10-20T10:42:16;-11650.84;;;-142.29;68.79
7748;BME280;3918;42.564;23.164;2022-10-20T10:44:55;-11650.84;;;-142.29;68.37
7748;BME280;3918;42.564;23.164;2022-10-20T10:47:39;-11650.84;;;-142.29;69.76
7748;BME280;3918;42.564;23.164;2022-10-20T10:50:24;-11650.84;;;-142.29;69.39
7748;BME280;3918;42.564;23.164;2022-10-20T10:52:59;-11650.84;;;-142.29;68.74
7748;BME280;3918;42.564;23.164;2022-10-20T10:55:36;-11650.84;;;-142.29;69.35
7748;BME280;3918;42.564;23.164;2022-10-20T10:58:10;-11650.84;;;-142.29;67.79
7748;BME280;3918;42.564;23.164;2022-10-20T11:00:47;-11650.84;;;-142.29;68.74
7748;BME280;3918;42.564;23.164;2022-10-20T11:03:37;-11650.84;;;-142.29;68.74
7748;BME280;3918;42.564;23.164;2022-10-20T11:06:15;-11650.84;;;-142.29;68.47
7748;BME280;3918;42.564;23.164;2022-10-20T11:09:00;-11650.84;;;-142.29;65.93
7748;BME280;3918;42.564;23.164;2022-10-20T11:11:39;-11650.84;;;-142.29;65.26
7748;BME280;3918;42.564;23.164;2022-10-20T11:14:22;-11650.84;;;-142.29;66.68
7748;BME280;3918;42.564;23.164;2022-10-20T11:17:06;-11650.84;;;-142.29;65.33
7748;BME280;3918;42.564;23.164;2022-10-20T11:22:42;-11650.84;;;-142.29;66.52
7748;BME280;3918;42.564;23.164;2022-10-20T11:25:21;-11650.84;;;-142.29;64.84
7748;BME280;3918;42.564;23.164;2022-10-20T11:27:51;-11650.84;;;-142.29;66.51
7748;BME280;3918;42.564;23.164;2022-10-20T11:30:19;-11650.84;;;-142.29;65.76
7748;BME280;3918;42.564;23.164;2022-10-20T11:32:51;-11650.84;;;-142.29;65.34
7748;BME280;3918;42.564;23.164;2022-10-20T11:35:29;-11650.84;;;-142.29;66.33
7748;BME280;3918;42.564;23.164;2022-10-20T11:38:13;-11650.84;;;-142.29;65.42
7748;BME280;3918;42.564;23.164;2022-10-20T11:40:46;-11650.84;;;-142.29;65.85
7748;BME280;3918;42.564;23.164;2022-10-20T11:43:16;-11650.84;;;-142.29;65.00
7748;BME280;3918;42.564;23.164;2022-10-20T11:45:48;-11650.84;;;-142.29;65.48
7748;BME280;3918;42.564;23.164;2022-10-20T11:48:21;-11650.84;;;-142.29;65.89
7748;BME280;3918;42.564;23.164;2022-10-20T11:51:02;-11650.84;;;-142.29;65.00
7748;BME280;3918;42.564;23.164;2022-10-20T11:53:42;-11650.84;;;-142.29;66.40
7748;BME280;3918;42.564;23.164;2022-10-20T12:03:19;-11650.84;;;-142.29;65.74
7748;BME280;3918;42.564;23.164;2022-10-20T12:06:06;-11650.84;;;-142.29;64.82
7748;BME280;3918;42.564;23.164;2022-10-20T12:08:56;-11650.84;;;-142.29;64.70
7748;BME280;3918;42.564;23.164;2022-10-20T12:11:29;-11650.84;;;-142.29;63.97
7748;BME280;3918;42.564;23.164;2022-10-20T12:14:05;-11650.84;;;-142.29;64.73
7748;BME280;3918;42.564;23.164;2022-10-20T12:17:02;-11650.84;;;-142.29;65.21
7748;BME280;3918;42.564;23.164;2022-10-20T12:19:32;-11650.84;;;-142.29;65.63
7748;BME280;3918;42.564;23.164;2022-10-20T12:22:02;-11650.84;;;-142.29;64.27
7748;BME280;3918;42.564;23.164;2022-10-20T12:24:36;-11650.84;;;-142.29;62.48
7748;BME280;3918;42.564;23.164;2022-10-20T12:27:15;-11650.84;;;-142.29;63.51
7748;BME280;3918;42.564;23.164;2022-10-20T12:30:00;-11650.84;;;-142.29;62.85
7748;BME280;3918;42.564;23.164;2022-10-20T12:32:50;-11650.84;;;-142.29;62.92
7748;BME280;3918;42.564;23.164;2022-10-20T12:38:22;-11650.84;;;-142.29;60.76
7748;BME280;3918;42.564;23.164;2022-10-20T12:40:54;-11650.84;;;-142.29;59.81
7748;BME280;3918;42.564;23.164;2022-10-20T12:43:28;-11650.84;;;-142.29;61.81
7748;BME280;3918;42.564;23.164;2022-10-20T12:45:58;-11650.84;;;-142.29;61.58
7748;BME280;3918;42.564;23.164;2022-10-20T12:48:28;-11650.84;;;-142.29;61.03
7748;BME280;3918;42.564;23.164;2022-10-20T12:51:02;-11650.84;;;-142.29;60.89
7748;BME280;3918;42.564;23.164;2022-10-20T12:53:32;-11650.84;;;-142.29;60.70
7748;BME280;3918;42.564;23.164;2022-10-20T12:56:05;-11650.84;;;-142.29;60.37
7748;BME280;3918;42.564;23.164;2022-10-20T12:58:34;-11650.84;;;-142.29;60.70
7748;BME280;3918;42.564;23.164;2022-10-20T13:01:07;-11650.84;;;-142.29;58.86
7748;BME280;3918;42.564;23.164;2022-10-20T13:03:39;-11650.84;;;-142.29;59.51
7748;BME280;3918;42.564;23.164;2022-10-20T13:06:39;-11650.84;;;-142.29;59.92
7748;BME280;3918;42.564;23.164;2022-10-20T13:09:22;-11650.84;;;-142.29;59.64
7748;BME280;3918;42.564;23.164;2022-10-20T13:12:01;-11650.84;;;-142.29;59.04
7748;BME280;3918;42.564;23.164;2022-10-20T13:14:54;-11650.84;;;-142.29;59.01
7748;BME280;3918;42.564;23.164;2022-10-20T13:17:25;-11650.84;;;-142.29;59.59
7748;BME280;3918;42.564;23.164;2022-10-20T13:19:58;-11650.84;;;-142.29;59.47
7748;BME280;3918;42.564;23.164;2022-10-20T13:22:37;-11650.84;;;-142.29;59.14
7748;BME280;3918;42.564;23.164;2022-10-20T13:28:03;-11650.84;;;-142.29;59.80
7748;BME280;3918;42.564;23.164;2022-10-20T13:30:32;-11650.84;;;-142.29;59.27
7748;BME280;3918;42.564;23.164;2022-10-20T13:33:05;-11650.84;;;-142.29;59.09
7748;BME280;3918;42.564;23.164;2022-10-20T13:35:41;-11650.84;;;-142.29;58.46
7748;BME280;3918;42.564;23.164;2022-10-20T13:38:17;-11650.84;;;-142.29;58.87
7748;BME280;3918;42.564;23.164;2022-10-20T13:40:52;-11650.84;;;-142.29;58.91
7748;BME280;3918;42.564;23.164;2022-10-20T13:43:29;-11650.84;;;-142.29;58.93
7748;BME280;3918;42.564;23.164;2022-10-20T13:46:19;-11650.84;;;-142.29;57.88
7748;BME280;3918;42.564;23.164;2022-10-20T13:48:59;-11650.84;;;-142.29;58.20
7748;BME280;3918;42.564;23.164;2022-10-20T13:51:37;-11650.84;;;-142.29;58.10
7748;BME280;3918;42.564;23.164;2022-10-20T13:54:06;-11650.84;;;-142.29;57.82
7748;BME280;3918;42.564;23.164;2022-10-20T13:56:34;-11650.84;;;-142.29;58.80
7748;BME280;3918;42.564;23.164;2022-10-20T13:59:05;-11650.84;;;-142.29;58.93
7748;BME280;3918;42.564;23.164;2022-10-20T14:01:34;-11650.84;;;-142.29;59.06
7748;BME280;3918;42.564;23.164;2022-10-20T14:04:01;-11650.84;;;-142.29;59.04
7748;BME280;3918;42.564;23.164;2022-10-20T14:06:33;-11650.84;;;-142.29;59.66
7748;BME280;3918;42.564;23.164;2022-10-20T14:09:10;-11650.84;;;-142.29;59.28
7748;BME280;3918;42.564;23.164;2022-10-20T14:11:38;-11650.84;;;-142.29;59.55
7748;BME280;3918;42.564;23.164;2022-10-20T14:14:11;-11650.84;;;-142.29;59.66
7748;BME280;3918;42.564;23.164;2022-10-20T14:16:39;-11650.84;;;-142.29;59.59
7748;BME280;3918;42.564;23.164;2022-10-20T14:19:10;-11650.84;;;-142.29;59.80
7748;BME280;3918;42.564;23.164;2022-10-20T14:21:42;-11650.84;;;-142.29;59.95
7748;BME280;3918;42.564;23.164;2022-10-20T14:24:13;-11650.84;;;-142.29;60.03
7748;BME280;3918;42.564;23.164;2022-10-20T14:26:42;-11650.84;;;-142.29;59.94
7748;BME280;3918;42.564;23.164;2022-10-20T14:29:11;-11650.84;;;-142.29;60.31
7748;BME280;3918;42.564;23.164;2022-10-20T14:31:40;-11650.84;;;-142.29;60.57
7748;BME280;3918;42.564;23.164;2022-10-20T14:34:17;-11650.84;;;-142.29;60.75
7748;BME280;3918;42.564;23.164;2022-10-20T14:36:45;-11650.84;;;-142.29;60.94
7748;BME280;3918;42.564;23.164;2022-10-20T14:39:20;-11650.84;;;-142.29;60.72
7748;BME280;3918;42.564;23.164;2022-10-20T14:41:48;-11650.84;;;-142.29;60.67
7748;BME280;3918;42.564;23.164;2022-10-20T14:44:20;-11650.84;;;-142.29;60.88
7748;BME280;3918;42.564;23.164;2022-10-20T14:46:48;-11650.84;;;-142.29;60.88
7748;BME280;3918;42.564;23.164;2022-10-20T14:49:21;-11650.84;;;-142.29;61.44
7748;BME280;3918;42.564;23.164;2022-10-20T14:51:55;-11650.84;;;-142.29;61.83
7748;BME280;3918;42.564;23.164;2022-10-20T14:54:30;-11650.84;;;-142.29;61.42
7748;BME280;3918;42.564;23.164;2022-10-20T14:56:59;-11650.84;;;-142.29;61.57
7748;BME280;3918;42.564;23.164;2022-10-20T14:59:29;-11650.84;;;-142.29;61.96
7748;BME280;3918;42.564;23.164;2022-10-20T15:01:59;-11650.84;;;-142.29;62.62
7748;BME280;3918;42.564;23.164;2022-10-20T15:04:30;-11650.84;;;-142.29;63.48
7748;BME280;3918;42.564;23.164;2022-10-20T15:07:06;-11650.84;;;-142.29;63.54
7748;BME280;3918;42.564;23.164;2022-10-20T15:09:38;-11650.84;;;-142.29;63.87
7748;BME280;3918;42.564;23.164;2022-10-20T15:12:06;-11650.84;;;-142.29;64.65
7748;BME280;3918;42.564;23.164;2022-10-20T15:14:41;-11650.84;;;-142.29;64.61
7748;BME280;3918;42.564;23.164;2022-10-20T15:17:34;-11650.84;;;-142.29;65.68
7748;BME280;3918;42.564;23.164;2022-10-20T15:20:33;-11650.84;;;-142.29;66.34
7748;BME280;3918;42.564;23.164;2022-10-20T15:23:03;-11650.84;;;-142.29;67.06
7748;BME280;3918;42.564;23.164;2022-10-20T15:25:39;-11650.84;;;-142.29;67.45
7748;BME280;3918;42.564;23.164;2022-10-20T15:31:05;-11650.84;;;-142.29;68.33
7748;BME280;3918;42.564;23.164;2022-10-20T15:33:32;-11650.84;;;-142.29;69.06
7748;BME280;3918;42.564;23.164;2022-10-20T15:35:59;-11650.84;;;-142.29;69.14
7748;BME280;3918;42.564;23.164;2022-10-20T15:38:26;-11650.84;;;-142.29;69.14
7748;BME280;3918;42.564;23.164;2022-10-20T15:40:53;-11650.84;;;-142.29;69.87
7748;BME280;3918;42.564;23.164;2022-10-20T15:43:20;-11650.84;;;-142.29;70.28
7748;BME280;3918;42.564;23.164;2022-10-20T15:45:51;-11650.84;;;-142.29;70.83
7748;BME280;3918;42.564;23.164;2022-10-20T15:48:20;-11650.84;;;-142.29;71.46
7748;BME280;3918;42.564;23.164;2022-10-20T15:50:48;-11650.84;;;-142.29;71.99
7748;BME280;3918;42.564;23.164;2022-10-20T15:53:15;-11650.84;;;-142.29;72.67
7748;BME280;3918;42.564;23.164;2022-10-20T15:55:43;-11650.84;;;-142.29;73.35
7748;BME280;3918;42.564;23.164;2022-10-20T15:58:10;-11650.84;;;-142.29;74.24
7748;BME280;3918;42.564;23.164;2022-10-20T16:00:37;-11650.84;;;-142.29;74.42
7748;BME280;3918;42.564;23.164;2022-10-20T16:03:04;-11650.84;;;-142.29;75.44
7748;BME280;3918;42.564;23.164;2022-10-20T16:05:32;-11650.84;;;-142.29;76.06
7748;BME280;3918;42.564;23.164;2022-10-20T16:07:59;-11650.84;;;-142.29;76.70
7748;BME280;3918;42.564;23.164;2022-10-20T16:10:26;-11650.84;;;-142.29;77.47
7748;BME280;3918;42.564;23.164;2022-10-20T16:12:54;-11650.84;;;-142.29;78.36
7748;BME280;3918;42.564;23.164;2022-10-20T16:15:21;-11650.84;;;-142.29;78.56
7748;BME280;3918;42.564;23.164;2022-10-20T16:17:48;-11650.84;;;-142.29;78.36
7748;BME280;3918;42.564;23.164;2022-10-20T16:20:15;-11650.84;;;-142.29;78.23
7748;BME280;3918;42.564;23.164;2022-10-20T16:22:43;-11650.84;;;-142.29;78.61
7748;BME280;3918;42.564;23.164;2022-10-20T16:25:10;-11650.84;;;-142.29;79.04
7748;BME280;3918;42.564;23.164;2022-10-20T16:27:37;-11650.84;;;-142.29;78.62
7748;BME280;3918;42.564;23.164;2022-10-20T16:30:05;-11650.84;;;-142.29;78.60
7748;BME280;3918;42.564;23.164;2022-10-20T16:32:33;-11650.84;;;-142.29;78.85
7748;BME280;3918;42.564;23.164;2022-10-20T16:35:00;-11650.84;;;-142.29;78.85
7748;BME280;3918;42.564;23.164;2022-10-20T16:37:29;-11650.84;;;-142.29;78.84
7748;BME280;3918;42.564;23.164;2022-10-20T16:39:58;-11650.84;;;-142.29;78.66
7748;BME280;3918;42.564;23.164;2022-10-20T16:42:25;-11650.84;;;-142.29;78.68
7748;BME280;3918;42.564;23.164;2022-10-20T16:44:54;-11650.84;;;-142.29;78.69
7748;BME280;3918;42.564;23.164;2022-10-20T16:47:21;-11650.84;;;-142.29;78.54
7748;BME280;3918;42.564;23.164;2022-10-20T16:49:48;-11650.84;;;-142.29;78.61
7748;BME280;3918;42.564;23.164;2022-10-20T16:52:15;-11650.84;;;-142.29;79.40
7748;BME280;3918;42.564;23.164;2022-10-20T16:54:41;-11650.84;;;-142.29;80.09
7748;BME280;3918;42.564;23.164;2022-10-20T16:57:10;-11650.84;;;-142.29;81.44
7748;BME280;3918;42.564;23.164;2022-10-20T16:59:37;-11650.84;;;-142.29;81.91
7748;BME280;3918;42.564;23.164;2022-10-20T17:02:04;-11650.84;;;-142.29;82.03
7748;BME280;3918;42.564;23.164;2022-10-20T17:04:31;-11650.84;;;-142.29;82.89
7748;BME280;3918;42.564;23.164;2022-10-20T17:06:58;-11650.84;;;-142.29;83.05
7748;BME280;3918;42.564;23.164;2022-10-20T17:09:24;-11650.84;;;-142.29;82.92
7748;BME280;3918;42.564;23.164;2022-10-20T17:11:51;-11650.84;;;-142.29;83.00
7748;BME280;3918;42.564;23.164;2022-10-20T17:14:19;-11650.84;;;-142.29;83.94
7748;BME280;3918;42.564;23.164;2022-10-20T17:16:47;-11650.84;;;-142.29;83.94
7748;BME280;3918;42.564;23.164;2022-10-20T17:19:14;-11650.84;;;-142.29;84.27
7748;BME280;3918;42.564;23.164;2022-10-20T17:21:41;-11650.84;;;-142.29;85.28
7748;BME280;3918;42.564;23.164;2022-10-20T17:24:09;-11650.84;;;-142.29;85.65
7748;BME280;3918;42.564;23.164;2022-10-20T17:26:37;-11650.84;;;-142.29;86.14
7748;BME280;3918;42.564;23.164;2022-10-20T17:29:04;-11650.84;;;-142.29;86.56
7748;BME280;3918;42.564;23.164;2022-10-20T17:31:32;-11650.84;;;-142.29;86.39
7748;BME280;3918;42.564;23.164;2022-10-20T17:33:59;-11650.84;;;-142.29;86.36
7748;BME280;3918;42.564;23.164;2022-10-20T17:36:28;-11650.84;;;-142.29;87.48
7748;BME280;3918;42.564;23.164;2022-10-20T17:38:56;-11650.84;;;-142.29;88.14
7748;BME280;3918;42.564;23.164;2022-10-20T17:41:23;-11650.84;;;-142.29;89.39
7748;BME280;3918;42.564;23.164;2022-10-20T17:43:50;-11650.84;;;-142.29;89.65
7748;BME280;3918;42.564;23.164;2022-10-20T17:46:18;-11650.84;;;-142.29;90.56
7748;BME280;3918;42.564;23.164;2022-10-20T17:48:47;-11650.84;;;-142.29;91.48
7748;BME280;3918;42.564;23.164;2022-10-20T17:51:15;-11650.84;;;-142.29;93.56
7748;BME280;3918;42.564;23.164;2022-10-20T17:53:45;-11650.84;;;-142.29;95.41
7748;BME280;3918;42.564;23.164;2022-10-20T17:56:15;-11650.84;;;-142.29;97.73
7748;BME280;3918;42.564;23.164;2022-10-20T17:58:43;-11650.84;;;-142.29;98.20
7748;BME280;3918;42.564;23.164;2022-10-20T18:01:12;-11650.84;;;-142.29;99.45
7748;BME280;3918;42.564;23.164;2022-10-20T18:03:41;-11650.84;;;-142.29;100.00
7748;BME280;3918;42.564;23.164;2022-10-20T18:06:11;-11650.84;;;-142.29;100.00
7748;BME280;3918;42.564;23.164;2022-10-20T18:08:38;-11650.84;;;-142.29;100.00
7748;BME280;3918;42.564;23.164;2022-10-20T18:11:08;-11650.84;;;-142.29;100.00
7748;BME280;3918;42.564;23.164;2022-10-20T18:13:36;-11650.84;;;-142.29;100.00
7748;BME280;3918;42.564;23.164;2022-10-20T18:16:04;-11650.84;;;-142.29;100.00